sensor_id;sensor_type;location;lat;lon;timestamp;pressure;altitude;pressure_sealevel;temperature;humidity
6778;BME280;3426;52.244;10.534;2022-09-03T00:01:26;100811.75;;;20.57;38.20
6778;BME280;3426;52.244;10.534;2022-09-03T00:04:01;100802.28;;;20.53;38.09
6778;BME280;3426;52.244;10.534;2022-09-03T00:06:35;100810.34;;;20.24;38.58
6778;BME280;3426;52.244;10.534;2022-09-03T00:09:19;100803.44;;;20.31;38.45
6778;BME280;3426;52.244;10.534;2022-09-03T00:11:54;100801.25;;;19.76;39.11
6778;BME280;3426;52.244;10.534;2022-09-03T00:14:33;100805.25;;;20.11;39.03
6778;BME280;3426;52.244;10.534;2022-09-03T00:17:14;100802.97;;;20.35;38.31
6778;BME280;3426;52.244;10.534;2022-09-03T00:19:51;100798.75;;;20.43;38.32
6778;BME280;3426;52.244;10.534;2022-09-03T00:22:27;100786.13;;;20.33;38.50
6778;BME280;3426;52.244;10.534;2022-09-03T00:24:57;100791.69;;;20.03;38.91
6778;BME280;3426;52.244;10.534;2022-09-03T00:27:27;100797.19;;;20.11;38.77
6778;BME280;3426;52.244;10.534;2022-09-03T00:30:09;100803.69;;;19.49;39.81
6778;BME280;3426;52.244;10.534;2022-09-03T00:32:56;100797.88;;;20.23;38.43
6778;BME280;3426;52.244;10.534;2022-09-03T00:35:29;100794.19;;;19.95;38.95
6778;BME280;3426;52.244;10.534;2022-09-03T00:37:58;100795.19;;;19.84;39.22
6778;BME280;3426;52.244;10.534;2022-09-03T00:40:37;100790.78;;;19.73;39.46
6778;BME280;3426;52.244;10.534;2022-09-03T00:43:25;100785.00;;;20.17;38.75
6778;BME280;3426;52.244;10.534;2022-09-03T00:48:29;100792.09;;;20.47;38.00
6778;BME280;3426;52.244;10.534;2022-09-03T00:53:52;100786.84;;;19.87;39.02
6778;BME280;3426;52.244;10.534;2022-09-03T01:02:03;100785.00;;;20.17;38.85
6778;BME280;3426;52.244;10.534;2022-09-03T01:04:54;100784.00;;;19.89;39.43
6778;BME280;3426;52.244;10.534;2022-09-03T01:13:12;100791.47;;;19.25;40.79
6778;BME280;3426;52.244;10.534;2022-09-03T01:15:56;100779.47;;;19.79;39.56
6778;BME280;3426;52.244;10.534;2022-09-03T01:18:40;100785.69;;;19.70;39.86
6778;BME280;3426;52.244;10.534;2022-09-03T01:33:12;100782.72;;;19.73;39.75
6778;BME280;3426;52.244;10.534;2022-09-03T01:38:33;100792.63;;;19.73;39.91
6778;BME280;3426;52.244;10.534;2022-09-03T01:41:26;100797.00;;;19.74;40.04
6778;BME280;3426;52.244;10.534;2022-09-03T01:53:18;100801.97;;;19.38;40.59
6778;BME280;3426;52.244;10.534;2022-09-03T01:56:10;100809.25;;;19.57;40.13
6778;BME280;3426;52.244;10.534;2022-09-03T01:58:51;100802.13;;;18.43;42.05
6778;BME280;3426;52.244;10.534;2022-09-03T02:01:30;100801.31;;;19.15;41.28
6778;BME280;3426;52.244;10.534;2022-09-03T02:03:58;100803.19;;;18.94;41.59
6778;BME280;3426;52.244;10.534;2022-09-03T02:06:26;100799.25;;;19.28;40.65
6778;BME280;3426;52.244;10.534;2022-09-03T02:08:54;100801.22;;;19.26;40.90
6778;BME280;3426;52.244;10.534;2022-09-03T02:11:21;100809.28;;;19.26;40.82
6778;BME280;3426;52.244;10.534;2022-09-03T02:13:51;100808.28;;;19.27;40.75
6778;BME280;3426;52.244;10.534;2022-09-03T02:16:22;100807.28;;;19.28;40.83
6778;BME280;3426;52.244;10.534;2022-09-03T02:18:53;100805.91;;;19.34;40.92
6778;BME280;3426;52.244;10.534;2022-09-03T02:21:21;100802.31;;;19.14;40.74
6778;BME280;3426;52.244;10.534;2022-09-03T02:23:50;100803.66;;;19.29;40.84
6778;BME280;3426;52.244;10.534;2022-09-03T02:26:21;100803.84;;;19.07;41.08
6778;BME280;3426;52.244;10.534;2022-09-03T02:28:50;100802.47;;;19.22;40.45
6778;BME280;3426;52.244;10.534;2022-09-03T02:31:17;100800.53;;;19.24;41.08
6778;BME280;3426;52.244;10.534;2022-09-03T02:33:46;100806.91;;;19.02;41.26
6778;BME280;3426;52.244;10.534;2022-09-03T02:36:15;100798.41;;;18.35;42.16
6778;BME280;3426;52.244;10.534;2022-09-03T02:38:44;100798.34;;;18.46;42.34
6778;BME280;3426;52.244;10.534;2022-09-03T02:41:10;100800.56;;;18.41;42.28
6778;BME280;3426;52.244;10.534;2022-09-03T02:43:42;100797.94;;;19.13;41.21
6778;BME280;3426;52.244;10.534;2022-09-03T02:46:16;100798.59;;;19.05;41.06
6778;BME280;3426;52.244;10.534;2022-09-03T02:48:43;100795.63;;;18.57;42.22
6778;BME280;3426;52.244;10.534;2022-09-03T02:51:09;100796.56;;;18.98;41.25
6778;BME280;3426;52.244;10.534;2022-09-03T02:53:40;100800.59;;;18.83;41.85
6778;BME280;3426;52.244;10.534;2022-09-03T02:56:06;100794.50;;;19.11;41.03
6778;BME280;3426;52.244;10.534;2022-09-03T02:58:33;100805.84;;;18.84;41.99
6778;BME280;3426;52.244;10.534;2022-09-03T03:01:00;100807.66;;;18.63;41.96
6778;BME280;3426;52.244;10.534;2022-09-03T03:03:27;100809.41;;;18.94;41.60
6778;BME280;3426;52.244;10.534;2022-09-03T03:05:55;100808.19;;;18.77;41.71
6778;BME280;3426;52.244;10.534;2022-09-03T03:08:24;100806.44;;;19.18;41.14
6778;BME280;3426;52.244;10.534;2022-09-03T03:10:55;100800.41;;;19.05;41.24
6778;BME280;3426;52.244;10.534;2022-09-03T03:13:25;100794.91;;;18.76;41.80
6778;BME280;3426;52.244;10.534;2022-09-03T03:15:58;100798.28;;;18.99;40.92
6778;BME280;3426;52.244;10.534;2022-09-03T03:18:25;100792.19;;;18.97;41.57
6778;BME280;3426;52.244;10.534;2022-09-03T03:20:51;100793.38;;;18.83;42.08
6778;BME280;3426;52.244;10.534;2022-09-03T03:23:19;100794.34;;;19.03;41.48
6778;BME280;3426;52.244;10.534;2022-09-03T03:25:46;100789.59;;;18.86;41.63
6778;BME280;3426;52.244;10.534;2022-09-03T03:28:13;100788.56;;;18.56;42.37
6778;BME280;3426;52.244;10.534;2022-09-03T03:30:40;100787.44;;;18.79;42.07
6778;BME280;3426;52.244;10.534;2022-09-03T03:33:08;100796.56;;;18.98;41.80
6778;BME280;3426;52.244;10.534;2022-09-03T03:35:36;100786.28;;;18.72;42.20
6778;BME280;3426;52.244;10.534;2022-09-03T03:38:03;100778.19;;;18.93;41.94
6778;BME280;3426;52.244;10.534;2022-09-03T03:40:30;100789.31;;;18.89;41.96
6778;BME280;3426;52.244;10.534;2022-09-03T03:42:57;100784.09;;;18.87;42.05
6778;BME280;3426;52.244;10.534;2022-09-03T03:45:24;100788.06;;;18.30;42.82
6778;BME280;3426;52.244;10.534;2022-09-03T03:47:50;100789.94;;;18.71;42.57
6778;BME280;3426;52.244;10.534;2022-09-03T03:50:17;100797.16;;;18.60;42.76
6778;BME280;3426;52.244;10.534;2022-09-03T03:52:44;100791.81;;;18.60;42.27
6778;BME280;3426;52.244;10.534;2022-09-03T03:55:11;100795.44;;;18.70;42.52
6778;BME280;3426;52.244;10.534;2022-09-03T03:57:41;100801.13;;;18.56;42.76
6778;BME280;3426;52.244;10.534;2022-09-03T04:00:08;100792.16;;;18.66;42.75
6778;BME280;3426;52.244;10.534;2022-09-03T04:02:34;100792.16;;;18.66;43.18
6778;BME280;3426;52.244;10.534;2022-09-03T04:05:04;100787.44;;;18.79;42.67
6778;BME280;3426;52.244;10.534;2022-09-03T04:07:32;100786.06;;;17.90;44.78
6778;BME280;3426;52.244;10.534;2022-09-03T04:09:59;100794.03;;;18.34;43.89
6778;BME280;3426;52.244;10.534;2022-09-03T04:12:26;100783.44;;;17.57;45.93
6778;BME280;3426;52.244;10.534;2022-09-03T04:14:52;100784.50;;;18.41;43.97
6778;BME280;3426;52.244;10.534;2022-09-03T04:17:19;100793.53;;;18.40;43.97
6778;BME280;3426;52.244;10.534;2022-09-03T04:19:50;100779.25;;;18.39;43.95
6778;BME280;3426;52.244;10.534;2022-09-03T04:22:17;100785.06;;;17.91;45.10
6778;BME280;3426;52.244;10.534;2022-09-03T04:24:44;100780.50;;;18.03;44.93
6778;BME280;3426;52.244;10.534;2022-09-03T04:27:10;100773.69;;;18.10;44.69
6778;BME280;3426;52.244;10.534;2022-09-03T04:29:37;100772.78;;;18.21;44.81
6778;BME280;3426;52.244;10.534;2022-09-03T04:32:04;100778.31;;;18.08;44.94
6778;BME280;3426;52.244;10.534;2022-09-03T04:34:50;100773.00;;;17.54;45.72
6778;BME280;3426;52.244;10.534;2022-09-03T04:37:16;100773.41;;;17.15;46.93
6778;BME280;3426;52.244;10.534;2022-09-03T04:39:45;100771.75;;;17.46;46.58
6778;BME280;3426;52.244;10.534;2022-09-03T04:42:11;100778.72;;;17.38;46.45
6778;BME280;3426;52.244;10.534;2022-09-03T04:44:38;100779.44;;;17.51;46.59
6778;BME280;3426;52.244;10.534;2022-09-03T04:47:06;100781.34;;;17.83;45.86
6778;BME280;3426;52.244;10.534;2022-09-03T04:49:32;100787.06;;;17.78;46.06
6778;BME280;3426;52.244;10.534;2022-09-03T04:51:59;100781.56;;;17.68;45.81
6778;BME280;3426;52.244;10.534;2022-09-03T04:54:26;100786.47;;;17.74;45.86
6778;BME280;3426;52.244;10.534;2022-09-03T04:56:55;100789.44;;;17.27;47.02
6778;BME280;3426;52.244;10.534;2022-09-03T04:59:21;100785.75;;;17.50;46.53
6778;BME280;3426;52.244;10.534;2022-09-03T05:01:48;100787.69;;;17.59;46.61
6778;BME280;3426;52.244;10.534;2022-09-03T05:04:14;100781.47;;;17.70;46.44
6778;BME280;3426;52.244;10.534;2022-09-03T05:06:41;100780.25;;;17.63;46.91
6778;BME280;3426;52.244;10.534;2022-09-03T05:09:08;100783.38;;;17.02;48.00
6778;BME280;3426;52.244;10.534;2022-09-03T05:11:35;100784.47;;;17.00;48.23
6778;BME280;3426;52.244;10.534;2022-09-03T05:14:02;100791.25;;;16.81;49.01
6778;BME280;3426;52.244;10.534;2022-09-03T05:16:29;100787.97;;;17.34;47.93
6778;BME280;3426;52.244;10.534;2022-09-03T05:18:57;100786.28;;;17.33;48.02
6778;BME280;3426;52.244;10.534;2022-09-03T05:21:29;100787.69;;;17.59;48.00
6778;BME280;3426;52.244;10.534;2022-09-03T05:23:58;100790.44;;;17.03;47.80
6778;BME280;3426;52.244;10.534;2022-09-03T05:26:27;100780.22;;;16.97;47.98
6778;BME280;3426;52.244;10.534;2022-09-03T05:28:58;100775.19;;;17.48;47.23
6778;BME280;3426;52.244;10.534;2022-09-03T05:31:27;100785.09;;;17.80;46.34
6778;BME280;3426;52.244;10.534;2022-09-03T05:33:57;100780.34;;;17.84;46.01
6778;BME280;3426;52.244;10.534;2022-09-03T05:36:27;100782.34;;;17.59;46.72
6778;BME280;3426;52.244;10.534;2022-09-03T05:38:54;100787.00;;;18.00;45.87
6778;BME280;3426;52.244;10.534;2022-09-03T05:41:22;100781.88;;;17.97;46.58
6778;BME280;3426;52.244;10.534;2022-09-03T05:43:51;100792.25;;;17.91;45.83
6778;BME280;3426;52.244;10.534;2022-09-03T05:46:22;100786.34;;;18.08;45.69
6778;BME280;3426;52.244;10.534;2022-09-03T05:48:55;100791.09;;;18.16;45.55
6778;BME280;3426;52.244;10.534;2022-09-03T05:51:21;100797.97;;;18.71;44.61
6778;BME280;3426;52.244;10.534;2022-09-03T05:53:48;100792.63;;;18.71;44.64
6778;BME280;3426;52.244;10.534;2022-09-03T05:56:22;100795.75;;;18.56;44.21
6778;BME280;3426;52.244;10.534;2022-09-03T05:58:51;100797.44;;;18.98;43.79
6778;BME280;3426;52.244;10.534;2022-09-03T06:03:54;100802.75;;;19.19;43.52
6778;BME280;3426;52.244;10.534;2022-09-03T06:06:21;100801.81;;;18.99;43.75
6778;BME280;3426;52.244;10.534;2022-09-03T06:08:56;100792.25;;;19.56;42.92
6778;BME280;3426;52.244;10.534;2022-09-03T06:11:24;100796.75;;;20.06;41.82
6778;BME280;3426;52.244;10.534;2022-09-03T06:13:54;100793.31;;;19.65;42.02
6778;BME280;3426;52.244;10.534;2022-09-03T06:16:21;100795.75;;;19.88;42.17
6778;BME280;3426;52.244;10.534;2022-09-03T06:18:58;100800.03;;;19.50;42.71
6778;BME280;3426;52.244;10.534;2022-09-03T06:21:25;100792.72;;;19.62;42.38
6778;BME280;3426;52.244;10.534;2022-09-03T06:23:54;100801.56;;;19.93;41.80
6778;BME280;3426;52.244;10.534;2022-09-03T06:26:26;100799.88;;;19.92;42.08
6778;BME280;3426;52.244;10.534;2022-09-03T06:28:55;100800.03;;;20.48;41.11
6778;BME280;3426;52.244;10.534;2022-09-03T06:31:22;100790.38;;;20.65;40.70
6778;BME280;3426;52.244;10.534;2022-09-03T06:33:49;100799.25;;;20.75;40.35
6778;BME280;3426;52.244;10.534;2022-09-03T06:36:18;100784.69;;;19.71;42.25
6778;BME280;3426;52.244;10.534;2022-09-03T06:38:45;100782.56;;;21.09;39.95
6778;BME280;3426;52.244;10.534;2022-09-03T06:41:15;100786.91;;;21.57;38.93
6778;BME280;3426;52.244;10.534;2022-09-03T06:43:47;100794.06;;;21.11;39.00
6778;BME280;3426;52.244;10.534;2022-09-03T06:46:16;100790.03;;;21.34;38.76
6778;BME280;3426;52.244;10.534;2022-09-03T06:48:43;100798.25;;;21.23;39.26
6778;BME280;3426;52.244;10.534;2022-09-03T06:51:16;100804.69;;;20.36;40.94
6778;BME280;3426;52.244;10.534;2022-09-03T06:53:45;100793.91;;;20.66;40.07
6778;BME280;3426;52.244;10.534;2022-09-03T06:56:14;100795.63;;;20.37;40.89
6778;BME280;3426;52.244;10.534;2022-09-03T06:58:44;100797.75;;;19.85;41.68
6778;BME280;3426;52.244;10.534;2022-09-03T07:01:17;100798.59;;;20.25;40.96
6778;BME280;3426;52.244;10.534;2022-09-03T07:03:46;100797.03;;;20.61;40.07
6778;BME280;3426;52.244;10.534;2022-09-03T07:06:16;100802.00;;;20.17;41.07
6778;BME280;3426;52.244;10.534;2022-09-03T07:08:43;100791.16;;;20.85;40.26
6778;BME280;3426;52.244;10.534;2022-09-03T07:11:16;100791.34;;;20.74;40.15
6778;BME280;3426;52.244;10.534;2022-09-03T07:13:46;100804.25;;;20.41;40.73
6778;BME280;3426;52.244;10.534;2022-09-03T07:16:15;100794.31;;;20.42;40.84
6778;BME280;3426;52.244;10.534;2022-09-03T07:18:43;100799.03;;;20.49;40.42
6778;BME280;3426;52.244;10.534;2022-09-03T07:21:23;100791.47;;;21.19;39.24
6778;BME280;3426;52.244;10.534;2022-09-03T07:23:50;100794.28;;;20.80;40.01
6778;BME280;3426;52.244;10.534;2022-09-03T07:26:20;100804.44;;;20.96;39.69
6778;BME280;3426;52.244;10.534;2022-09-03T07:28:48;100797.81;;;21.55;38.54
6778;BME280;3426;52.244;10.534;2022-09-03T07:31:23;100787.13;;;20.99;39.38
6778;BME280;3426;52.244;10.534;2022-09-03T07:33:55;100793.09;;;21.02;39.26
6778;BME280;3426;52.244;10.534;2022-09-03T07:36:23;100796.56;;;20.85;39.89
6778;BME280;3426;52.244;10.534;2022-09-03T07:38:54;100785.31;;;21.36;39.03
6778;BME280;3426;52.244;10.534;2022-09-03T07:41:21;100789.97;;;21.07;39.35
6778;BME280;3426;52.244;10.534;2022-09-03T07:43:54;100784.88;;;21.86;38.22
6778;BME280;3426;52.244;10.534;2022-09-03T07:46:23;100782.63;;;21.36;38.83
6778;BME280;3426;52.244;10.534;2022-09-03T07:48:51;100770.63;;;22.12;38.00
6778;BME280;3426;52.244;10.534;2022-09-03T07:51:20;100773.63;;;22.27;37.40
6778;BME280;3426;52.244;10.534;2022-09-03T07:53:47;100776.63;;;21.88;38.58
6778;BME280;3426;52.244;10.534;2022-09-03T07:56:14;100768.53;;;22.41;37.00
6778;BME280;3426;52.244;10.534;2022-09-03T07:58:41;100772.69;;;22.54;36.85
6778;BME280;3426;52.244;10.534;2022-09-03T08:01:16;100782.81;;;23.38;35.20
6778;BME280;3426;52.244;10.534;2022-09-03T08:03:46;100777.72;;;23.00;35.93
6778;BME280;3426;52.244;10.534;2022-09-03T08:06:14;100796.81;;;23.07;35.65
6778;BME280;3426;52.244;10.534;2022-09-03T08:08:41;100782.53;;;23.15;35.76
6778;BME280;3426;52.244;10.534;2022-09-03T08:11:18;100770.66;;;24.49;33.28
6778;BME280;3426;52.244;10.534;2022-09-03T08:13:52;100778.56;;;24.10;33.87
6778;BME280;3426;52.244;10.534;2022-09-03T08:16:19;100785.69;;;24.76;32.51
6778;BME280;3426;52.244;10.534;2022-09-03T08:18:46;100777.75;;;24.18;33.07
6778;BME280;3426;52.244;10.534;2022-09-03T08:21:17;100779.63;;;24.50;32.58
6778;BME280;3426;52.244;10.534;2022-09-03T08:23:46;100794.97;;;23.08;34.56
6778;BME280;3426;52.244;10.534;2022-09-03T08:26:15;100772.94;;;23.71;34.22
6778;BME280;3426;52.244;10.534;2022-09-03T08:28:42;100786.03;;;24.65;32.96
6778;BME280;3426;52.244;10.534;2022-09-03T08:31:12;100775.22;;;24.73;33.07
6778;BME280;3426;52.244;10.534;2022-09-03T08:33:50;100780.44;;;24.67;32.02
6778;BME280;3426;52.244;10.534;2022-09-03T08:36:24;100774.22;;;24.17;32.38
6778;BME280;3426;52.244;10.534;2022-09-03T08:38:53;100776.25;;;24.23;32.96
6778;BME280;3426;52.244;10.534;2022-09-03T08:42:05;100777.22;;;23.98;32.72
6778;BME280;3426;52.244;10.534;2022-09-03T08:44:32;100782.19;;;23.60;33.87
6778;BME280;3426;52.244;10.534;2022-09-03T08:47:22;100777.97;;;24.41;32.32
6778;BME280;3426;52.244;10.534;2022-09-03T08:49:58;100781.63;;;24.07;32.48
6778;BME280;3426;52.244;10.534;2022-09-03T08:52:40;100797.41;;;23.61;32.39
6778;BME280;3426;52.244;10.534;2022-09-03T08:55:36;100782.69;;;24.39;31.88
6778;BME280;3426;52.244;10.534;2022-09-03T08:58:25;100792.13;;;23.60;32.42
6778;BME280;3426;52.244;10.534;2022-09-03T09:06:47;100780.44;;;23.43;31.88
6778;BME280;3426;52.244;10.534;2022-09-03T09:09:49;100778.22;;;23.38;31.94
6778;BME280;3426;52.244;10.534;2022-09-03T09:15:46;100759.59;;;23.69;30.79
6778;BME280;3426;52.244;10.534;2022-09-03T09:20:52;100775.53;;;23.89;29.91
6778;BME280;3426;52.244;10.534;2022-09-03T09:23:32;100765.16;;;23.68;30.41
6778;BME280;3426;52.244;10.534;2022-09-03T09:26:05;100756.78;;;24.12;29.87
6778;BME280;3426;52.244;10.534;2022-09-03T09:28:34;100761.69;;;24.49;29.63
6778;BME280;3426;52.244;10.534;2022-09-03T09:31:03;100758.59;;;24.76;28.65
6778;BME280;3426;52.244;10.534;2022-09-03T09:33:31;100758.50;;;24.45;29.09
6778;BME280;3426;52.244;10.534;2022-09-03T09:36:02;100753.88;;;24.21;28.73
6778;BME280;3426;52.244;10.534;2022-09-03T09:38:31;100753.63;;;23.58;28.96
6778;BME280;3426;52.244;10.534;2022-09-03T09:41:19;100761.00;;;24.22;28.97
6778;BME280;3426;52.244;10.534;2022-09-03T09:43:46;100762.88;;;24.46;29.01
6778;BME280;3426;52.244;10.534;2022-09-03T09:46:21;100754.06;;;24.44;28.07
6778;BME280;3426;52.244;10.534;2022-09-03T09:48:58;100767.03;;;23.75;28.38
6778;BME280;3426;52.244;10.534;2022-09-03T09:51:29;100756.09;;;24.58;27.67
6778;BME280;3426;52.244;10.534;2022-09-03T09:54:11;100751.81;;;24.72;27.89
6778;BME280;3426;52.244;10.534;2022-09-03T09:56:38;100756.56;;;24.78;28.11
6778;BME280;3426;52.244;10.534;2022-09-03T09:59:07;100752.06;;;24.38;28.23
6778;BME280;3426;52.244;10.534;2022-09-03T10:01:38;100763.72;;;24.14;28.76
6778;BME280;3426;52.244;10.534;2022-09-03T10:04:12;100748.56;;;24.93;27.63
6778;BME280;3426;52.244;10.534;2022-09-03T10:06:53;100754.31;;;24.90;28.32
6778;BME280;3426;52.244;10.534;2022-09-03T10:09:27;100748.31;;;24.06;28.21
6778;BME280;3426;52.244;10.534;2022-09-03T10:12:23;100750.66;;;24.75;27.52
6778;BME280;3426;52.244;10.534;2022-09-03T10:28:08;100740.84;;;24.74;27.59
6778;BME280;3426;52.244;10.534;2022-09-03T10:33:41;100733.41;;;24.68;27.38
6778;BME280;3426;52.244;10.534;2022-09-03T10:36:38;100731.34;;;24.78;27.65
6778;BME280;3426;52.244;10.534;2022-09-03T10:39:21;100731.75;;;24.18;28.41
6778;BME280;3426;52.244;10.534;2022-09-03T10:44:37;100724.97;;;24.54;27.52
6778;BME280;3426;52.244;10.534;2022-09-03T11:04:45;100711.41;;;24.63;27.50
6778;BME280;3426;52.244;10.534;2022-09-03T11:07:20;100707.34;;;23.61;28.92
6778;BME280;3426;52.244;10.534;2022-09-03T11:12:30;100691.84;;;24.92;27.58
6778;BME280;3426;52.244;10.534;2022-09-03T11:15:27;100691.72;;;25.55;26.92
6778;BME280;3426;52.244;10.534;2022-09-03T11:18:06;100700.69;;;24.77;27.75
6778;BME280;3426;52.244;10.534;2022-09-03T11:20:36;100695.75;;;25.59;26.96
6778;BME280;3426;52.244;10.534;2022-09-03T11:23:04;100702.13;;;25.04;27.64
6778;BME280;3426;52.244;10.534;2022-09-03T11:25:40;100695.78;;;24.73;27.59
6778;BME280;3426;52.244;10.534;2022-09-03T11:33:23;100692.50;;;24.46;27.91
6778;BME280;3426;52.244;10.534;2022-09-03T11:35:56;100694.00;;;24.32;28.38
6778;BME280;3426;52.244;10.534;2022-09-03T11:38:29;100685.59;;;24.91;27.78
6778;BME280;3426;52.244;10.534;2022-09-03T11:43:42;100696.38;;;24.99;27.56
6778;BME280;3426;52.244;10.534;2022-09-03T11:46:27;100691.38;;;25.27;27.38
6778;BME280;3426;52.244;10.534;2022-09-03T11:48:56;100685.72;;;24.98;27.34
6778;BME280;3426;52.244;10.534;2022-09-03T11:51:36;100680.31;;;25.37;26.89
6778;BME280;3426;52.244;10.534;2022-09-03T11:56:40;100676.50;;;25.77;27.12
6778;BME280;3426;52.244;10.534;2022-09-03T12:01:49;100677.69;;;25.21;26.86
6778;BME280;3426;52.244;10.534;2022-09-03T12:04:24;100673.31;;;24.64;27.54
6778;BME280;3426;52.244;10.534;2022-09-03T12:10:00;100655.91;;;25.06;27.62
6778;BME280;3426;52.244;10.534;2022-09-03T12:18:17;100675.66;;;25.77;26.37
6778;BME280;3426;52.244;10.534;2022-09-03T12:23:41;100668.94;;;25.64;26.24
6778;BME280;3426;52.244;10.534;2022-09-03T12:26:13;100671.97;;;25.38;26.81
6778;BME280;3426;52.244;10.534;2022-09-03T12:28:47;100659.69;;;25.28;26.88
6778;BME280;3426;52.244;10.534;2022-09-03T12:31:20;100652.91;;;25.78;26.10
6778;BME280;3426;52.244;10.534;2022-09-03T12:33:54;100662.59;;;25.72;26.48
6778;BME280;3426;52.244;10.534;2022-09-03T12:36:25;100670.53;;;25.51;26.76
6778;BME280;3426;52.244;10.534;2022-09-03T12:38:52;100648.75;;;25.05;26.77
6778;BME280;3426;52.244;10.534;2022-09-03T12:41:37;100652.81;;;25.63;26.26
6778;BME280;3426;52.244;10.534;2022-09-03T12:44:04;100648.88;;;24.80;27.56
6778;BME280;3426;52.244;10.534;2022-09-03T12:46:32;100650.50;;;25.29;26.80
6778;BME280;3426;52.244;10.534;2022-09-03T12:49:04;100643.91;;;25.54;26.39
6778;BME280;3426;52.244;10.534;2022-09-03T12:52:02;100652.41;;;25.51;26.41
6778;BME280;3426;52.244;10.534;2022-09-03T12:54:33;100647.38;;;26.09;25.86
6778;BME280;3426;52.244;10.534;2022-09-03T12:57:03;100647.50;;;25.47;26.46
6778;BME280;3426;52.244;10.534;2022-09-03T12:59:33;100638.03;;;25.74;25.78
6778;BME280;3426;52.244;10.534;2022-09-03T13:02:05;100645.28;;;25.81;26.19
6778;BME280;3426;52.244;10.534;2022-09-03T13:04:40;100636.63;;;25.78;25.92
6778;BME280;3426;52.244;10.534;2022-09-03T13:07:18;100625.56;;;25.10;26.95
6778;BME280;3426;52.244;10.534;2022-09-03T13:09:47;100633.09;;;25.92;25.81
6778;BME280;3426;52.244;10.534;2022-09-03T13:12:33;100621.75;;;26.11;25.87
6778;BME280;3426;52.244;10.534;2022-09-03T13:15:06;100618.78;;;25.37;26.68
6778;BME280;3426;52.244;10.534;2022-09-03T13:31:19;100613.19;;;25.39;26.37
6778;BME280;3426;52.244;10.534;2022-09-03T13:34:00;100616.50;;;26.10;25.62
6778;BME280;3426;52.244;10.534;2022-09-03T13:36:33;100618.69;;;25.69;26.38
6778;BME280;3426;52.244;10.534;2022-09-03T13:39:08;100615.59;;;25.80;26.07
6778;BME280;3426;52.244;10.534;2022-09-03T13:41:42;100621.28;;;25.47;26.38
6778;BME280;3426;52.244;10.534;2022-09-03T13:50:08;100620.63;;;26.35;25.75
6778;BME280;3426;52.244;10.534;2022-09-03T13:53:03;100616.16;;;26.28;25.76
6778;BME280;3426;52.244;10.534;2022-09-03T13:55:47;100613.59;;;26.26;25.42
6778;BME280;3426;52.244;10.534;2022-09-03T14:23:02;100615.03;;;25.61;26.75
6778;BME280;3426;52.244;10.534;2022-09-03T14:25:30;100608.13;;;25.82;26.29
6778;BME280;3426;52.244;10.534;2022-09-03T14:28:26;100600.31;;;26.16;25.90
6778;BME280;3426;52.244;10.534;2022-09-03T14:34:38;100602.84;;;26.33;26.19
6778;BME280;3426;52.244;10.534;2022-09-03T14:40:15;100609.31;;;25.56;27.08
6778;BME280;3426;52.244;10.534;2022-09-03T14:48:18;100605.34;;;26.20;26.51
6778;BME280;3426;52.244;10.534;2022-09-03T14:56:53;100607.34;;;26.11;26.31
6778;BME280;3426;52.244;10.534;2022-09-03T15:12:51;100612.06;;;25.94;26.65
6778;BME280;3426;52.244;10.534;2022-09-03T15:15:26;100615.81;;;25.93;26.31
6778;BME280;3426;52.244;10.534;2022-09-03T15:36:25;100614.84;;;25.86;25.60
6778;BME280;3426;52.244;10.534;2022-09-03T15:39:10;100618.78;;;25.60;26.23
6778;BME280;3426;52.244;10.534;2022-09-03T15:41:45;100616.19;;;25.44;26.38
6778;BME280;3426;52.244;10.534;2022-09-03T15:44:16;100616.44;;;25.80;25.78
6778;BME280;3426;52.244;10.534;2022-09-03T15:47:04;100611.53;;;26.13;25.12
6778;BME280;3426;52.244;10.534;2022-09-03T15:49:47;100615.97;;;25.77;25.86
6778;BME280;3426;52.244;10.534;2022-09-03T15:55:12;100618.34;;;25.95;26.12
6778;BME280;3426;52.244;10.534;2022-09-03T16:06:31;100599.22;;;26.55;25.17
6778;BME280;3426;52.244;10.534;2022-09-03T16:11:58;100603.94;;;25.71;26.61
6778;BME280;3426;52.244;10.534;2022-09-03T16:14:29;100608.88;;;25.76;26.65
6778;BME280;3426;52.244;10.534;2022-09-03T16:20:19;100594.91;;;25.79;26.21
6778;BME280;3426;52.244;10.534;2022-09-03T16:23:06;100590.72;;;25.53;26.56
6778;BME280;3426;52.244;10.534;2022-09-03T16:25:56;100600.94;;;25.89;26.46
6778;BME280;3426;52.244;10.534;2022-09-03T16:28:36;100596.00;;;26.37;26.10
6778;BME280;3426;52.244;10.534;2022-09-03T16:34:47;100593.00;;;26.17;25.84
6778;BME280;3426;52.244;10.534;2022-09-03T16:48:42;100606.19;;;25.45;26.71
6778;BME280;3426;52.244;10.534;2022-09-03T16:51:19;100606.72;;;25.86;26.49
6778;BME280;3426;52.244;10.534;2022-09-03T16:53:57;100606.81;;;25.78;26.17
6778;BME280;3426;52.244;10.534;2022-09-03T16:56:45;100606.97;;;25.53;27.06
6778;BME280;3426;52.244;10.534;2022-09-03T17:05:34;100609.72;;;25.91;26.66
6778;BME280;3426;52.244;10.534;2022-09-03T17:08:46;100606.47;;;25.96;26.39
6778;BME280;3426;52.244;10.534;2022-09-03T17:19:35;100614.38;;;25.59;27.20
6778;BME280;3426;52.244;10.534;2022-09-03T17:24:57;100621.16;;;25.09;28.18
6778;BME280;3426;52.244;10.534;2022-09-03T17:33:10;100618.91;;;25.44;28.25
6778;BME280;3426;52.244;10.534;2022-09-03T17:36:00;100625.50;;;24.40;29.71
6778;BME280;3426;52.244;10.534;2022-09-03T17:41:34;100621.53;;;24.98;29.16
6778;BME280;3426;52.244;10.534;2022-09-03T17:49:54;100625.88;;;25.38;29.12
6778;BME280;3426;52.244;10.534;2022-09-03T17:54:56;100637.88;;;24.82;29.95
6778;BME280;3426;52.244;10.534;2022-09-03T17:57:31;100636.81;;;25.30;29.52
6778;BME280;3426;52.244;10.534;2022-09-03T18:00:05;100647.22;;;24.71;30.16
6778;BME280;3426;52.244;10.534;2022-09-03T18:02:49;100650.06;;;24.78;29.99
6778;BME280;3426;52.244;10.534;2022-09-03T18:05:22;100659.97;;;24.54;30.54
6778;BME280;3426;52.244;10.534;2022-09-03T18:10:26;100653.34;;;25.04;30.18
6778;BME280;3426;52.244;10.534;2022-09-03T18:13:12;100656.00;;;24.81;30.03